Aérodrome :
LOGIN :

S'inscrire | Disclaimer

   EN    FR    IT 

 










Légende :    VFR   VFR Marginal   IFR   IFR Intensif   IFR Très Intensif
Visi : 
Plafond : 
>= 8 km
>= 3000ft
5 à 8 km
1000 à 3000 ft
1500m à 5 km
500 à 1000 ft
800 à 1500m
200 à 500 ft
< 800m
< 200 ft
Symboles :   Orages  Brouillard  Fortes neiges  Fortes précipitations  Vent > 20 kt
SIGMETs :   Divers  Orages  Givrage  Turbulence  Onde Orograph.  Cendres Volcan.






- Altitude de l'aérodrome : 16 ft
- Code IATA : SDL


ESNN - Sundsvall-Härnösand

DERNIER METAR :
  • 201620Z 33003KT 9999 BCFG NSC M02/M02 Q1028 R16/19//55

METARs EXPIRÉS :
  • 201550Z VRB02KT 9999 BCFG NSC M02/M02 Q1028 R16/19//58
  • 201520Z VRB03KT CAVOK M01/M01 Q1027 R16/19//58
  • 201450Z 34005KT CAVOK M01/M01 Q1027 R16/19//58
  • 201420Z VRB03KT CAVOK M00/M00 Q1027 R16/19//58
  • 201350Z 13005KT CAVOK M00/M00 Q1027 R16/19//58

TAF AMD TAF ESNN
Valide du 20 à 16h jusqu'au 20 à 22h UTC


201646Z 2016/2022 VRB02KT CAVOK
TEMPO 2018/2022 0400 FZFG VV002



MET'MAP, la Météo Aéronautique d'un coup d'oeil ! - Copyright ORBIFLY Décembre 2007 - Disclaimer

ORBIFLY MET'MAP TEAM :

Programmation & Développement : Alexandra Zaïnal
Conception & Développement : Baudouin d'Aumeries
Co-Programmation & Développement : Marc-Olivier Méhu
Soutien technique & logistique : Manuel Goepfert

Contact : metmap@orbifly.com




SOURCES & CREDITS :

   NOAA